sensor_id;sensor_type;location;lat;lon;timestamp;temperature;humidity
36372;DHT22;22398;51.346;12.372;2024-02-26T00:02:01;4.10;86.90
36372;DHT22;22398;51.346;12.372;2024-02-26T00:07:07;4.10;87.10
36372;DHT22;22398;51.346;12.372;2024-02-26T00:12:12;4.00;87.20
36372;DHT22;22398;51.346;12.372;2024-02-26T00:17:15;3.80;87.50
36372;DHT22;22398;51.346;12.372;2024-02-26T00:22:19;3.70;87.90
36372;DHT22;22398;51.346;12.372;2024-02-26T00:27:25;3.60;88.00
36372;DHT22;22398;51.346;12.372;2024-02-26T00:32:29;3.50;88.40
36372;DHT22;22398;51.346;12.372;2024-02-26T00:37:32;3.50;89.20
36372;DHT22;22398;51.346;12.372;2024-02-26T00:42:37;3.80;89.80
36372;DHT22;22398;51.346;12.372;2024-02-26T00:47:41;3.80;90.10
36372;DHT22;22398;51.346;12.372;2024-02-26T00:52:44;3.90;90.30
36372;DHT22;22398;51.346;12.372;2024-02-26T00:57:52;3.90;90.50
36372;DHT22;22398;51.346;12.372;2024-02-26T01:02:55;3.90;90.70
36372;DHT22;22398;51.346;12.372;2024-02-26T01:07:59;3.90;91.00
36372;DHT22;22398;51.346;12.372;2024-02-26T01:13:04;3.90;91.30
36372;DHT22;22398;51.346;12.372;2024-02-26T01:18:09;3.90;91.60
36372;DHT22;22398;51.346;12.372;2024-02-26T01:23:13;3.90;91.90
36372;DHT22;22398;51.346;12.372;2024-02-26T01:28:19;3.90;92.10
36372;DHT22;22398;51.346;12.372;2024-02-26T01:33:22;3.80;92.20
36372;DHT22;22398;51.346;12.372;2024-02-26T01:43:30;3.70;92.80
36372;DHT22;22398;51.346;12.372;2024-02-26T01:48:34;3.50;93.20
36372;DHT22;22398;51.346;12.372;2024-02-26T01:53:37;3.50;93.30
36372;DHT22;22398;51.346;12.372;2024-02-26T01:58:43;3.40;93.70
36372;DHT22;22398;51.346;12.372;2024-02-26T02:03:47;3.30;93.90
36372;DHT22;22398;51.346;12.372;2024-02-26T02:08:50;3.20;94.00
36372;DHT22;22398;51.346;12.372;2024-02-26T02:13:55;3.20;94.40
36372;DHT22;22398;51.346;12.372;2024-02-26T02:18:59;3.20;95.00
36372;DHT22;22398;51.346;12.372;2024-02-26T02:24:05;3.20;95.20
36372;DHT22;22398;51.346;12.372;2024-02-26T02:29:08;3.20;95.50
36372;DHT22;22398;51.346;12.372;2024-02-26T02:34:12;3.10;95.60
36372;DHT22;22398;51.346;12.372;2024-02-26T02:39:17;2.90;95.80
36372;DHT22;22398;51.346;12.372;2024-02-26T02:44:21;2.90;96.00
36372;DHT22;22398;51.346;12.372;2024-02-26T02:49:25;2.90;96.60
36372;DHT22;22398;51.346;12.372;2024-02-26T02:54:30;2.90;96.90
36372;DHT22;22398;51.346;12.372;2024-02-26T02:59:33;2.90;97.00
36372;DHT22;22398;51.346;12.372;2024-02-26T03:04:37;3.00;97.30
36372;DHT22;22398;51.346;12.372;2024-02-26T03:09:42;3.00;97.50
36372;DHT22;22398;51.346;12.372;2024-02-26T03:14:45;3.10;97.70
36372;DHT22;22398;51.346;12.372;2024-02-26T03:19:49;3.10;97.90
36372;DHT22;22398;51.346;12.372;2024-02-26T03:24:57;3.10;98.10
36372;DHT22;22398;51.346;12.372;2024-02-26T03:30:00;3.10;98.20
36372;DHT22;22398;51.346;12.372;2024-02-26T03:35:05;3.00;98.30
36372;DHT22;22398;51.346;12.372;2024-02-26T03:40:12;2.80;98.40
36372;DHT22;22398;51.346;12.372;2024-02-26T03:45:16;2.80;98.70
36372;DHT22;22398;51.346;12.372;2024-02-26T03:50:20;2.70;98.90
36372;DHT22;22398;51.346;12.372;2024-02-26T03:55:26;2.60;99.20
36372;DHT22;22398;51.346;12.372;2024-02-26T04:00:29;2.50;99.50
36372;DHT22;22398;51.346;12.372;2024-02-26T04:05:34;2.50;99.90
36372;DHT22;22398;51.346;12.372;2024-02-26T04:10:38;2.40;99.90
36372;DHT22;22398;51.346;12.372;2024-02-26T04:15:42;2.40;99.90
36372;DHT22;22398;51.346;12.372;2024-02-26T04:20:46;2.40;99.90
36372;DHT22;22398;51.346;12.372;2024-02-26T04:25:51;2.40;99.90
36372;DHT22;22398;51.346;12.372;2024-02-26T04:30:55;2.40;99.90
36372;DHT22;22398;51.346;12.372;2024-02-26T04:35:59;2.40;99.90
36372;DHT22;22398;51.346;12.372;2024-02-26T04:41:04;2.40;99.90
36372;DHT22;22398;51.346;12.372;2024-02-26T04:46:07;2.40;99.90
36372;DHT22;22398;51.346;12.372;2024-02-26T04:51:11;2.40;99.90
36372;DHT22;22398;51.346;12.372;2024-02-26T04:56:16;2.40;99.90
36372;DHT22;22398;51.346;12.372;2024-02-26T05:01:20;2.50;99.90
36372;DHT22;22398;51.346;12.372;2024-02-26T05:06:24;2.60;99.90
36372;DHT22;22398;51.346;12.372;2024-02-26T05:11:29;2.50;99.90
36372;DHT22;22398;51.346;12.372;2024-02-26T05:16:32;2.50;99.90
36372;DHT22;22398;51.346;12.372;2024-02-26T05:21:39;2.50;99.90
36372;DHT22;22398;51.346;12.372;2024-02-26T05:26:46;2.50;99.90
36372;DHT22;22398;51.346;12.372;2024-02-26T05:31:53;2.50;99.90
36372;DHT22;22398;51.346;12.372;2024-02-26T05:36:56;2.50;99.90
36372;DHT22;22398;51.346;12.372;2024-02-26T05:42:01;2.50;99.90
36372;DHT22;22398;51.346;12.372;2024-02-26T05:47:05;2.40;99.90
36372;DHT22;22398;51.346;12.372;2024-02-26T05:52:09;2.50;99.90
36372;DHT22;22398;51.346;12.372;2024-02-26T06:02:17;2.50;99.90
36372;DHT22;22398;51.346;12.372;2024-02-26T06:07:21;2.60;99.90
36372;DHT22;22398;51.346;12.372;2024-02-26T06:12:26;2.60;99.90
36372;DHT22;22398;51.346;12.372;2024-02-26T06:17:32;2.60;99.90
36372;DHT22;22398;51.346;12.372;2024-02-26T06:22:36;2.80;99.90
36372;DHT22;22398;51.346;12.372;2024-02-26T06:32:47;2.90;99.90
36372;DHT22;22398;51.346;12.372;2024-02-26T06:37:53;3.00;99.90
36372;DHT22;22398;51.346;12.372;2024-02-26T06:42:58;3.00;99.90
36372;DHT22;22398;51.346;12.372;2024-02-26T06:48:02;3.10;99.90
36372;DHT22;22398;51.346;12.372;2024-02-26T06:58:11;3.40;99.90
36372;DHT22;22398;51.346;12.372;2024-02-26T07:03:14;3.60;99.90
36372;DHT22;22398;51.346;12.372;2024-02-26T07:08:18;3.80;99.90
36372;DHT22;22398;51.346;12.372;2024-02-26T07:13:23;3.90;99.90
36372;DHT22;22398;51.346;12.372;2024-02-26T07:23:35;4.30;99.90
36372;DHT22;22398;51.346;12.372;2024-02-26T07:28:47;4.70;99.90
36372;DHT22;22398;51.346;12.372;2024-02-26T07:34:17;4.70;99.90
36372;DHT22;22398;51.346;12.372;2024-02-26T07:39:21;5.20;99.90
36372;DHT22;22398;51.346;12.372;2024-02-26T07:49:29;5.80;99.90
36372;DHT22;22398;51.346;12.372;2024-02-26T07:54:35;6.00;99.90
36372;DHT22;22398;51.346;12.372;2024-02-26T08:04:46;6.30;99.90
36372;DHT22;22398;51.346;12.372;2024-02-26T08:09:49;6.50;99.90
36372;DHT22;22398;51.346;12.372;2024-02-26T08:14:53;6.70;99.90
36372;DHT22;22398;51.346;12.372;2024-02-26T08:19:59;6.70;99.90
36372;DHT22;22398;51.346;12.372;2024-02-26T08:25:03;6.70;99.90
36372;DHT22;22398;51.346;12.372;2024-02-26T08:30:09;6.80;99.90
36372;DHT22;22398;51.346;12.372;2024-02-26T08:35:16;6.80;99.90
36372;DHT22;22398;51.346;12.372;2024-02-26T08:40:20;7.00;99.90
36372;DHT22;22398;51.346;12.372;2024-02-26T08:45:23;7.50;99.90
36372;DHT22;22398;51.346;12.372;2024-02-26T08:50:33;7.80;99.90
36372;DHT22;22398;51.346;12.372;2024-02-26T08:55:37;8.30;99.90
36372;DHT22;22398;51.346;12.372;2024-02-26T09:00:40;8.80;99.90
36372;DHT22;22398;51.346;12.372;2024-02-26T09:05:45;9.10;99.60
36372;DHT22;22398;51.346;12.372;2024-02-26T09:10:50;9.60;98.50
36372;DHT22;22398;51.346;12.372;2024-02-26T09:15:53;9.90;97.80
36372;DHT22;22398;51.346;12.372;2024-02-26T09:20:58;10.30;96.80
36372;DHT22;22398;51.346;12.372;2024-02-26T09:26:01;10.60;95.70
36372;DHT22;22398;51.346;12.372;2024-02-26T09:31:05;10.90;94.70
36372;DHT22;22398;51.346;12.372;2024-02-26T09:36:10;11.20;93.60
36372;DHT22;22398;51.346;12.372;2024-02-26T09:41:14;11.30;92.70
36372;DHT22;22398;51.346;12.372;2024-02-26T09:46:18;11.50;92.00
36372;DHT22;22398;51.346;12.372;2024-02-26T09:51:24;11.60;90.90
36372;DHT22;22398;51.346;12.372;2024-02-26T09:56:30;11.80;90.60
36372;DHT22;22398;51.346;12.372;2024-02-26T10:01:34;12.10;89.90
36372;DHT22;22398;51.346;12.372;2024-02-26T10:06:39;12.20;87.90
36372;DHT22;22398;51.346;12.372;2024-02-26T10:11:43;12.30;86.70
36372;DHT22;22398;51.346;12.372;2024-02-26T10:16:47;12.50;85.70
36372;DHT22;22398;51.346;12.372;2024-02-26T10:21:55;12.80;84.90
36372;DHT22;22398;51.346;12.372;2024-02-26T10:26:59;13.00;83.90
36372;DHT22;22398;51.346;12.372;2024-02-26T10:32:03;13.30;82.60
36372;DHT22;22398;51.346;12.372;2024-02-26T10:37:09;13.20;81.30
36372;DHT22;22398;51.346;12.372;2024-02-26T10:42:13;12.90;80.10
36372;DHT22;22398;51.346;12.372;2024-02-26T10:47:17;12.90;79.70
36372;DHT22;22398;51.346;12.372;2024-02-26T10:52:23;12.90;79.30
36372;DHT22;22398;51.346;12.372;2024-02-26T10:57:29;12.90;78.80
36372;DHT22;22398;51.346;12.372;2024-02-26T11:02:36;12.90;78.60
36372;DHT22;22398;51.346;12.372;2024-02-26T11:07:41;13.10;77.70
36372;DHT22;22398;51.346;12.372;2024-02-26T11:12:45;13.20;77.20
36372;DHT22;22398;51.346;12.372;2024-02-26T11:17:50;13.10;76.70
36372;DHT22;22398;51.346;12.372;2024-02-26T11:22:56;13.30;76.70
36372;DHT22;22398;51.346;12.372;2024-02-26T11:28:03;13.40;76.00
36372;DHT22;22398;51.346;12.372;2024-02-26T11:33:08;13.30;75.70
36372;DHT22;22398;51.346;12.372;2024-02-26T11:38:20;13.10;75.50
36372;DHT22;22398;51.346;12.372;2024-02-26T11:43:30;13.30;75.30
36372;DHT22;22398;51.346;12.372;2024-02-26T11:48:55;13.40;74.80
36372;DHT22;22398;51.346;12.372;2024-02-26T11:54:00;13.40;74.30
36372;DHT22;22398;51.346;12.372;2024-02-26T11:59:09;13.50;74.30
36372;DHT22;22398;51.346;12.372;2024-02-26T12:04:18;13.70;74.00
36372;DHT22;22398;51.346;12.372;2024-02-26T12:09:34;13.70;74.10
36372;DHT22;22398;51.346;12.372;2024-02-26T12:14:39;13.80;73.90
36372;DHT22;22398;51.346;12.372;2024-02-26T12:19:43;13.30;73.30
36372;DHT22;22398;51.346;12.372;2024-02-26T12:24:58;13.30;73.80
36372;DHT22;22398;51.346;12.372;2024-02-26T12:30:03;13.50;74.00
36372;DHT22;22398;51.346;12.372;2024-02-26T12:35:09;13.50;73.70
36372;DHT22;22398;51.346;12.372;2024-02-26T12:40:14;13.40;73.80
36372;DHT22;22398;51.346;12.372;2024-02-26T12:45:17;13.30;73.90
36372;DHT22;22398;51.346;12.372;2024-02-26T12:50:22;13.40;73.90
36372;DHT22;22398;51.346;12.372;2024-02-26T12:55:27;13.40;73.50
36372;DHT22;22398;51.346;12.372;2024-02-26T13:00:31;13.50;73.30
36372;DHT22;22398;51.346;12.372;2024-02-26T13:05:35;13.50;73.30
36372;DHT22;22398;51.346;12.372;2024-02-26T13:10:41;13.60;73.30
36372;DHT22;22398;51.346;12.372;2024-02-26T13:15:44;13.40;72.80
36372;DHT22;22398;51.346;12.372;2024-02-26T13:20:47;13.40;73.00
36372;DHT22;22398;51.346;12.372;2024-02-26T13:25:56;13.50;72.80
36372;DHT22;22398;51.346;12.372;2024-02-26T13:31:00;13.50;73.00
36372;DHT22;22398;51.346;12.372;2024-02-26T13:36:05;13.60;72.70
36372;DHT22;22398;51.346;12.372;2024-02-26T13:41:11;13.50;72.60
36372;DHT22;22398;51.346;12.372;2024-02-26T13:46:15;13.50;72.50
36372;DHT22;22398;51.346;12.372;2024-02-26T13:51:18;13.50;72.50
36372;DHT22;22398;51.346;12.372;2024-02-26T13:56:23;13.50;72.30
36372;DHT22;22398;51.346;12.372;2024-02-26T14:01:28;13.70;71.70
36372;DHT22;22398;51.346;12.372;2024-02-26T14:06:33;13.70;71.90
36372;DHT22;22398;51.346;12.372;2024-02-26T14:11:38;13.90;71.70
36372;DHT22;22398;51.346;12.372;2024-02-26T14:16:41;13.70;71.20
36372;DHT22;22398;51.346;12.372;2024-02-26T14:31:54;13.40;70.70
36372;DHT22;22398;51.346;12.372;2024-02-26T14:36:58;13.30;71.10
36372;DHT22;22398;51.346;12.372;2024-02-26T14:42:03;13.10;71.10
36372;DHT22;22398;51.346;12.372;2024-02-26T14:47:07;12.90;71.20
36372;DHT22;22398;51.346;12.372;2024-02-26T14:52:11;12.70;71.60
36372;DHT22;22398;51.346;12.372;2024-02-26T14:57:15;12.50;72.00
36372;DHT22;22398;51.346;12.372;2024-02-26T15:02:19;12.10;72.20
36372;DHT22;22398;51.346;12.372;2024-02-26T15:07:22;12.00;72.90
36372;DHT22;22398;51.346;12.372;2024-02-26T15:12:27;11.80;73.60
36372;DHT22;22398;51.346;12.372;2024-02-26T15:17:33;11.60;74.20
36372;DHT22;22398;51.346;12.372;2024-02-26T15:22:38;11.60;74.60
36372;DHT22;22398;51.346;12.372;2024-02-26T15:27:42;11.50;74.60
36372;DHT22;22398;51.346;12.372;2024-02-26T15:32:46;11.50;75.20
36372;DHT22;22398;51.346;12.372;2024-02-26T15:37:49;11.50;75.50
36372;DHT22;22398;51.346;12.372;2024-02-26T15:42:54;11.50;75.60
36372;DHT22;22398;51.346;12.372;2024-02-26T15:47:58;11.50;76.00
36372;DHT22;22398;51.346;12.372;2024-02-26T15:53:01;11.40;76.30
36372;DHT22;22398;51.346;12.372;2024-02-26T15:58:09;11.30;76.60
36372;DHT22;22398;51.346;12.372;2024-02-26T16:03:13;11.10;77.00
36372;DHT22;22398;51.346;12.372;2024-02-26T16:08:20;11.10;77.40
36372;DHT22;22398;51.346;12.372;2024-02-26T16:13:25;11.00;77.70
36372;DHT22;22398;51.346;12.372;2024-02-26T16:18:28;10.90;77.60
36372;DHT22;22398;51.346;12.372;2024-02-26T16:23:32;10.90;78.10
36372;DHT22;22398;51.346;12.372;2024-02-26T16:28:37;10.80;78.60
36372;DHT22;22398;51.346;12.372;2024-02-26T16:33:40;10.70;78.50
36372;DHT22;22398;51.346;12.372;2024-02-26T16:38:44;10.70;79.00
36372;DHT22;22398;51.346;12.372;2024-02-26T16:43:49;10.60;78.90
36372;DHT22;22398;51.346;12.372;2024-02-26T16:48:52;10.50;79.40
36372;DHT22;22398;51.346;12.372;2024-02-26T16:53:57;10.40;79.40
36372;DHT22;22398;51.346;12.372;2024-02-26T16:59:02;10.30;80.00
36372;DHT22;22398;51.346;12.372;2024-02-26T17:04:06;10.30;80.10
36372;DHT22;22398;51.346;12.372;2024-02-26T17:09:09;10.10;80.40
36372;DHT22;22398;51.346;12.372;2024-02-26T17:14:14;10.00;80.90
36372;DHT22;22398;51.346;12.372;2024-02-26T17:19:18;10.00;81.70
36372;DHT22;22398;51.346;12.372;2024-02-26T17:24:22;9.90;81.80
36372;DHT22;22398;51.346;12.372;2024-02-26T17:34:30;9.80;82.60
36372;DHT22;22398;51.346;12.372;2024-02-26T17:39:34;9.70;83.20
36372;DHT22;22398;51.346;12.372;2024-02-26T17:44:39;9.70;83.30
36372;DHT22;22398;51.346;12.372;2024-02-26T17:49:42;9.70;83.90
36372;DHT22;22398;51.346;12.372;2024-02-26T17:54:46;9.70;84.20
36372;DHT22;22398;51.346;12.372;2024-02-26T17:59:51;9.70;84.50
36372;DHT22;22398;51.346;12.372;2024-02-26T18:04:54;9.60;84.50
36372;DHT22;22398;51.346;12.372;2024-02-26T18:09:58;9.60;84.90
36372;DHT22;22398;51.346;12.372;2024-02-26T18:15:07;9.60;85.00
36372;DHT22;22398;51.346;12.372;2024-02-26T18:20:11;9.60;85.40
36372;DHT22;22398;51.346;12.372;2024-02-26T18:25:14;9.60;85.60
36372;DHT22;22398;51.346;12.372;2024-02-26T18:30:20;9.50;85.60
36372;DHT22;22398;51.346;12.372;2024-02-26T18:35:24;9.40;85.90
36372;DHT22;22398;51.346;12.372;2024-02-26T18:40:27;9.20;86.00
36372;DHT22;22398;51.346;12.372;2024-02-26T18:45:32;9.20;86.40
36372;DHT22;22398;51.346;12.372;2024-02-26T18:50:36;9.00;86.40
36372;DHT22;22398;51.346;12.372;2024-02-26T18:55:41;9.00;86.80
36372;DHT22;22398;51.346;12.372;2024-02-26T19:00:46;9.00;86.90
36372;DHT22;22398;51.346;12.372;2024-02-26T19:05:50;8.90;87.20
36372;DHT22;22398;51.346;12.372;2024-02-26T19:10:53;9.00;87.40
36372;DHT22;22398;51.346;12.372;2024-02-26T19:15:58;9.00;87.50
36372;DHT22;22398;51.346;12.372;2024-02-26T19:21:02;8.90;87.40
36372;DHT22;22398;51.346;12.372;2024-02-26T19:26:05;8.90;87.70
36372;DHT22;22398;51.346;12.372;2024-02-26T19:31:10;8.80;87.60
36372;DHT22;22398;51.346;12.372;2024-02-26T19:36:16;8.70;87.60
36372;DHT22;22398;51.346;12.372;2024-02-26T19:41:21;8.70;88.30
36372;DHT22;22398;51.346;12.372;2024-02-26T19:46:26;8.60;88.50
36372;DHT22;22398;51.346;12.372;2024-02-26T19:51:32;8.50;88.30
36372;DHT22;22398;51.346;12.372;2024-02-26T19:56:36;8.60;89.00
36372;DHT22;22398;51.346;12.372;2024-02-26T20:01:41;8.60;89.20
36372;DHT22;22398;51.346;12.372;2024-02-26T20:06:44;8.50;89.40
36372;DHT22;22398;51.346;12.372;2024-02-26T20:11:50;8.50;89.60
36372;DHT22;22398;51.346;12.372;2024-02-26T20:16:55;8.50;90.00
36372;DHT22;22398;51.346;12.372;2024-02-26T20:22:00;8.50;90.00
36372;DHT22;22398;51.346;12.372;2024-02-26T20:27:06;8.50;90.20
36372;DHT22;22398;51.346;12.372;2024-02-26T20:32:10;8.40;90.30
36372;DHT22;22398;51.346;12.372;2024-02-26T20:37:14;8.20;90.30
36372;DHT22;22398;51.346;12.372;2024-02-26T20:42:18;8.10;90.50
36372;DHT22;22398;51.346;12.372;2024-02-26T20:47:23;8.00;90.70
36372;DHT22;22398;51.346;12.372;2024-02-26T20:52:26;7.80;90.70
36372;DHT22;22398;51.346;12.372;2024-02-26T20:57:30;7.70;91.00
36372;DHT22;22398;51.346;12.372;2024-02-26T21:02:35;8.10;91.50
36372;DHT22;22398;51.346;12.372;2024-02-26T21:07:41;7.60;91.60
36372;DHT22;22398;51.346;12.372;2024-02-26T21:12:48;7.50;91.80
36372;DHT22;22398;51.346;12.372;2024-02-26T21:17:54;7.50;92.10
36372;DHT22;22398;51.346;12.372;2024-02-26T21:22:57;7.40;92.30
36372;DHT22;22398;51.346;12.372;2024-02-26T21:28:01;7.40;92.60
36372;DHT22;22398;51.346;12.372;2024-02-26T21:33:06;7.40;93.00
36372;DHT22;22398;51.346;12.372;2024-02-26T21:38:10;7.30;93.40
36372;DHT22;22398;51.346;12.372;2024-02-26T21:43:13;7.20;93.80
36372;DHT22;22398;51.346;12.372;2024-02-26T21:48:18;7.20;94.30
36372;DHT22;22398;51.346;12.372;2024-02-26T21:53:21;7.20;94.70
36372;DHT22;22398;51.346;12.372;2024-02-26T21:58:25;7.20;95.10
36372;DHT22;22398;51.346;12.372;2024-02-26T22:03:30;7.20;95.50
36372;DHT22;22398;51.346;12.372;2024-02-26T22:08:34;7.20;95.80
36372;DHT22;22398;51.346;12.372;2024-02-26T22:13:39;7.30;96.20
36372;DHT22;22398;51.346;12.372;2024-02-26T22:18:43;7.40;96.50
36372;DHT22;22398;51.346;12.372;2024-02-26T22:23:48;7.40;96.50
36372;DHT22;22398;51.346;12.372;2024-02-26T22:28:51;7.50;96.80
36372;DHT22;22398;51.346;12.372;2024-02-26T22:33:56;7.50;96.80
36372;DHT22;22398;51.346;12.372;2024-02-26T22:39:00;7.50;96.90
36372;DHT22;22398;51.346;12.372;2024-02-26T22:44:04;7.50;97.00
36372;DHT22;22398;51.346;12.372;2024-02-26T22:49:09;7.50;97.10
36372;DHT22;22398;51.346;12.372;2024-02-26T22:54:12;7.40;97.20
36372;DHT22;22398;51.346;12.372;2024-02-26T22:59:16;7.40;97.30
36372;DHT22;22398;51.346;12.372;2024-02-26T23:04:20;7.40;97.30
36372;DHT22;22398;51.346;12.372;2024-02-26T23:09:25;7.40;97.40
36372;DHT22;22398;51.346;12.372;2024-02-26T23:14:28;7.40;97.40
36372;DHT22;22398;51.346;12.372;2024-02-26T23:19:33;7.40;97.60
36372;DHT22;22398;51.346;12.372;2024-02-26T23:24:37;7.30;97.70
36372;DHT22;22398;51.346;12.372;2024-02-26T23:29:40;7.30;97.80
36372;DHT22;22398;51.346;12.372;2024-02-26T23:34:45;7.30;97.90
36372;DHT22;22398;51.346;12.372;2024-02-26T23:39:51;7.20;98.00
36372;DHT22;22398;51.346;12.372;2024-02-26T23:44:55;7.20;98.00
36372;DHT22;22398;51.346;12.372;2024-02-26T23:50:00;7.20;98.20
36372;DHT22;22398;51.346;12.372;2024-02-26T23:55:04;7.20;98.10
